sensor_id;sensor_type;location;lat;lon;timestamp;P1;durP1;ratioP1;P2;durP2;ratioP2
17145;SDS011;8688;54.444;18.444;2022-11-14T00:00:30;10.75;;;5.30;;
17145;SDS011;8688;54.444;18.444;2022-11-14T00:03:00;9.10;;;5.50;;
17145;SDS011;8688;54.444;18.444;2022-11-14T00:05:28;9.57;;;5.93;;
17145;SDS011;8688;54.444;18.444;2022-11-14T00:07:56;10.95;;;5.85;;
17145;SDS011;8688;54.444;18.444;2022-11-14T00:10:23;10.02;;;5.57;;
17145;SDS011;8688;54.444;18.444;2022-11-14T00:12:51;8.52;;;4.95;;
17145;SDS011;8688;54.444;18.444;2022-11-14T00:15:18;10.68;;;5.18;;
17145;SDS011;8688;54.444;18.444;2022-11-14T00:17:46;11.60;;;5.13;;
17145;SDS011;8688;54.444;18.444;2022-11-14T00:20:15;11.93;;;5.20;;
17145;SDS011;8688;54.444;18.444;2022-11-14T00:22:42;10.57;;;5.20;;
17145;SDS011;8688;54.444;18.444;2022-11-14T00:25:10;10.02;;;5.03;;
17145;SDS011;8688;54.444;18.444;2022-11-14T00:27:38;11.25;;;5.60;;
17145;SDS011;8688;54.444;18.444;2022-11-14T00:30:05;9.10;;;5.00;;
17145;SDS011;8688;54.444;18.444;2022-11-14T00:32:33;8.18;;;5.30;;
17145;SDS011;8688;54.444;18.444;2022-11-14T00:35:01;11.55;;;5.38;;
17145;SDS011;8688;54.444;18.444;2022-11-14T00:37:30;11.40;;;5.32;;
17145;SDS011;8688;54.444;18.444;2022-11-14T00:45:00;8.93;;;4.85;;
17145;SDS011;8688;54.444;18.444;2022-11-14T00:47:28;8.98;;;4.95;;
17145;SDS011;8688;54.444;18.444;2022-11-14T00:49:55;8.98;;;5.15;;
17145;SDS011;8688;54.444;18.444;2022-11-14T00:52:23;8.80;;;5.45;;
17145;SDS011;8688;54.444;18.444;2022-11-14T00:54:52;9.40;;;5.57;;
17145;SDS011;8688;54.444;18.444;2022-11-14T00:57:19;10.07;;;5.93;;
17145;SDS011;8688;54.444;18.444;2022-11-14T00:59:46;11.15;;;5.75;;
17145;SDS011;8688;54.444;18.444;2022-11-14T01:02:14;10.52;;;5.57;;
17145;SDS011;8688;54.444;18.444;2022-11-14T01:04:41;8.30;;;5.40;;
17145;SDS011;8688;54.444;18.444;2022-11-14T01:07:09;9.85;;;6.03;;
17145;SDS011;8688;54.444;18.444;2022-11-14T01:09:36;10.20;;;6.05;;
17145;SDS011;8688;54.444;18.444;2022-11-14T01:12:05;9.90;;;6.20;;
17145;SDS011;8688;54.444;18.444;2022-11-14T01:14:33;11.02;;;5.75;;
17145;SDS011;8688;54.444;18.444;2022-11-14T01:17:00;9.73;;;5.82;;
17145;SDS011;8688;54.444;18.444;2022-11-14T01:19:27;10.98;;;6.13;;
17145;SDS011;8688;54.444;18.444;2022-11-14T01:21:55;9.05;;;5.75;;
17145;SDS011;8688;54.444;18.444;2022-11-14T01:24:22;10.23;;;6.75;;
17145;SDS011;8688;54.444;18.444;2022-11-14T01:26:50;10.95;;;6.55;;
17145;SDS011;8688;54.444;18.444;2022-11-14T01:29:21;13.18;;;7.18;;
17145;SDS011;8688;54.444;18.444;2022-11-14T01:31:48;9.38;;;6.57;;
17145;SDS011;8688;54.444;18.444;2022-11-14T01:34:16;10.57;;;6.43;;
17145;SDS011;8688;54.444;18.444;2022-11-14T01:36:43;10.20;;;6.20;;
17145;SDS011;8688;54.444;18.444;2022-11-14T01:39:11;8.25;;;4.90;;
17145;SDS011;8688;54.444;18.444;2022-11-14T01:41:38;8.18;;;4.97;;
17145;SDS011;8688;54.444;18.444;2022-11-14T01:44:10;9.38;;;4.95;;
17145;SDS011;8688;54.444;18.444;2022-11-14T01:46:41;9.35;;;5.05;;
17145;SDS011;8688;54.444;18.444;2022-11-14T01:49:14;8.05;;;4.70;;
17145;SDS011;8688;54.444;18.444;2022-11-14T01:51:46;7.65;;;4.35;;
17145;SDS011;8688;54.444;18.444;2022-11-14T01:54:17;9.25;;;4.18;;
17145;SDS011;8688;54.444;18.444;2022-11-14T01:56:49;7.13;;;4.00;;
17145;SDS011;8688;54.444;18.444;2022-11-14T01:59:21;7.53;;;4.05;;
17145;SDS011;8688;54.444;18.444;2022-11-14T02:01:52;7.20;;;4.50;;
17145;SDS011;8688;54.444;18.444;2022-11-14T02:04:23;7.72;;;4.03;;
17145;SDS011;8688;54.444;18.444;2022-11-14T02:06:54;5.97;;;4.00;;
17145;SDS011;8688;54.444;18.444;2022-11-14T02:09:23;6.70;;;3.65;;
17145;SDS011;8688;54.444;18.444;2022-11-14T02:11:52;6.88;;;3.40;;
17145;SDS011;8688;54.444;18.444;2022-11-14T02:14:21;9.25;;;3.85;;
17145;SDS011;8688;54.444;18.444;2022-11-14T02:16:48;7.90;;;3.17;;
17145;SDS011;8688;54.444;18.444;2022-11-14T02:19:18;7.13;;;3.60;;
17145;SDS011;8688;54.444;18.444;2022-11-14T02:21:46;7.75;;;3.30;;
17145;SDS011;8688;54.444;18.444;2022-11-14T02:24:14;5.13;;;3.28;;
17145;SDS011;8688;54.444;18.444;2022-11-14T02:26:41;6.75;;;3.58;;
17145;SDS011;8688;54.444;18.444;2022-11-14T02:29:10;6.40;;;3.50;;
17145;SDS011;8688;54.444;18.444;2022-11-14T02:31:37;5.75;;;3.50;;
17145;SDS011;8688;54.444;18.444;2022-11-14T02:34:05;8.93;;;3.10;;
17145;SDS011;8688;54.444;18.444;2022-11-14T02:36:32;5.93;;;3.22;;
17145;SDS011;8688;54.444;18.444;2022-11-14T02:39:01;5.60;;;3.03;;
17145;SDS011;8688;54.444;18.444;2022-11-14T02:41:31;6.05;;;2.97;;
17145;SDS011;8688;54.444;18.444;2022-11-14T02:43:59;5.20;;;3.22;;
17145;SDS011;8688;54.444;18.444;2022-11-14T02:46:26;7.75;;;3.53;;
17145;SDS011;8688;54.444;18.444;2022-11-14T02:48:53;5.10;;;3.40;;
17145;SDS011;8688;54.444;18.444;2022-11-14T02:51:21;5.15;;;3.10;;
17145;SDS011;8688;54.444;18.444;2022-11-14T02:53:48;6.07;;;3.25;;
17145;SDS011;8688;54.444;18.444;2022-11-14T02:56:17;4.35;;;2.88;;
17145;SDS011;8688;54.444;18.444;2022-11-14T02:58:44;7.07;;;3.00;;
17145;SDS011;8688;54.444;18.444;2022-11-14T03:01:12;5.65;;;3.38;;
17145;SDS011;8688;54.444;18.444;2022-11-14T03:03:39;5.40;;;3.08;;
17145;SDS011;8688;54.444;18.444;2022-11-14T03:06:06;4.68;;;3.33;;
17145;SDS011;8688;54.444;18.444;2022-11-14T03:08:34;6.60;;;3.30;;
17145;SDS011;8688;54.444;18.444;2022-11-14T03:13:39;7.68;;;3.70;;
17145;SDS011;8688;54.444;18.444;2022-11-14T03:16:08;6.15;;;3.90;;
17145;SDS011;8688;54.444;18.444;2022-11-14T03:18:37;5.25;;;3.45;;
17145;SDS011;8688;54.444;18.444;2022-11-14T03:21:04;5.47;;;3.90;;
17145;SDS011;8688;54.444;18.444;2022-11-14T03:23:33;5.07;;;3.40;;
17145;SDS011;8688;54.444;18.444;2022-11-14T03:26:00;8.30;;;4.00;;
17145;SDS011;8688;54.444;18.444;2022-11-14T03:28:29;6.75;;;3.72;;
17145;SDS011;8688;54.444;18.444;2022-11-14T03:30:58;6.78;;;4.35;;
17145;SDS011;8688;54.444;18.444;2022-11-14T03:33:25;7.18;;;4.38;;
17145;SDS011;8688;54.444;18.444;2022-11-14T03:35:53;12.10;;;4.22;;
17145;SDS011;8688;54.444;18.444;2022-11-14T03:38:21;7.53;;;4.57;;
17145;SDS011;8688;54.444;18.444;2022-11-14T03:40:48;8.02;;;4.38;;
17145;SDS011;8688;54.444;18.444;2022-11-14T03:43:16;8.55;;;4.85;;
17145;SDS011;8688;54.444;18.444;2022-11-14T03:45:44;7.35;;;4.65;;
17145;SDS011;8688;54.444;18.444;2022-11-14T03:48:14;8.75;;;5.18;;
17145;SDS011;8688;54.444;18.444;2022-11-14T03:50:42;8.90;;;4.68;;
17145;SDS011;8688;54.444;18.444;2022-11-14T03:53:09;7.17;;;4.90;;
17145;SDS011;8688;54.444;18.444;2022-11-14T03:55:37;7.25;;;4.47;;
17145;SDS011;8688;54.444;18.444;2022-11-14T03:58:04;10.17;;;5.30;;
17145;SDS011;8688;54.444;18.444;2022-11-14T04:00:32;9.68;;;5.20;;
17145;SDS011;8688;54.444;18.444;2022-11-14T04:02:59;9.35;;;5.30;;
17145;SDS011;8688;54.444;18.444;2022-11-14T04:05:28;13.15;;;5.75;;
17145;SDS011;8688;54.444;18.444;2022-11-14T04:07:58;10.88;;;5.57;;
17145;SDS011;8688;54.444;18.444;2022-11-14T04:10:25;11.00;;;5.90;;
17145;SDS011;8688;54.444;18.444;2022-11-14T04:12:53;8.43;;;5.63;;
17145;SDS011;8688;54.444;18.444;2022-11-14T04:15:20;10.15;;;6.03;;
17145;SDS011;8688;54.444;18.444;2022-11-14T04:17:48;9.48;;;5.88;;
17145;SDS011;8688;54.444;18.444;2022-11-14T04:20:15;12.10;;;6.40;;
17145;SDS011;8688;54.444;18.444;2022-11-14T04:22:44;15.23;;;6.93;;
17145;SDS011;8688;54.444;18.444;2022-11-14T04:25:12;11.48;;;6.32;;
17145;SDS011;8688;54.444;18.444;2022-11-14T04:27:39;9.68;;;5.90;;
17145;SDS011;8688;54.444;18.444;2022-11-14T04:42:57;12.60;;;7.05;;
17145;SDS011;8688;54.444;18.444;2022-11-14T04:45:25;12.88;;;6.90;;
17145;SDS011;8688;54.444;18.444;2022-11-14T04:47:52;14.00;;;7.40;;
17145;SDS011;8688;54.444;18.444;2022-11-14T04:50:20;11.35;;;6.63;;
17145;SDS011;8688;54.444;18.444;2022-11-14T04:52:49;10.60;;;6.55;;
17145;SDS011;8688;54.444;18.444;2022-11-14T04:55:18;14.40;;;7.60;;
17145;SDS011;8688;54.444;18.444;2022-11-14T04:57:45;13.75;;;7.22;;
17145;SDS011;8688;54.444;18.444;2022-11-14T05:00:14;13.52;;;7.35;;
17145;SDS011;8688;54.444;18.444;2022-11-14T05:02:42;13.15;;;7.30;;
17145;SDS011;8688;54.444;18.444;2022-11-14T05:05:10;13.45;;;7.43;;
17145;SDS011;8688;54.444;18.444;2022-11-14T05:07:37;13.27;;;8.20;;
17145;SDS011;8688;54.444;18.444;2022-11-14T05:10:05;15.20;;;9.07;;
17145;SDS011;8688;54.444;18.444;2022-11-14T05:12:34;12.23;;;7.63;;
17145;SDS011;8688;54.444;18.444;2022-11-14T05:15:01;27.00;;;14.55;;
17145;SDS011;8688;54.444;18.444;2022-11-14T05:17:32;23.58;;;12.95;;
17145;SDS011;8688;54.444;18.444;2022-11-14T05:19:59;22.35;;;12.60;;
17145;SDS011;8688;54.444;18.444;2022-11-14T05:22:26;17.00;;;9.70;;
17145;SDS011;8688;54.444;18.444;2022-11-14T05:24:54;16.88;;;8.82;;
17145;SDS011;8688;54.444;18.444;2022-11-14T05:27:21;16.15;;;8.68;;
17145;SDS011;8688;54.444;18.444;2022-11-14T05:29:49;17.40;;;9.07;;
17145;SDS011;8688;54.444;18.444;2022-11-14T05:32:16;13.38;;;8.13;;
17145;SDS011;8688;54.444;18.444;2022-11-14T05:34:45;17.45;;;8.95;;
17145;SDS011;8688;54.444;18.444;2022-11-14T05:37:13;13.80;;;8.00;;
17145;SDS011;8688;54.444;18.444;2022-11-14T05:39:40;18.08;;;9.35;;
17145;SDS011;8688;54.444;18.444;2022-11-14T05:42:08;13.75;;;8.18;;
17145;SDS011;8688;54.444;18.444;2022-11-14T05:44:35;15.13;;;8.18;;
17145;SDS011;8688;54.444;18.444;2022-11-14T05:47:02;15.68;;;8.80;;
17145;SDS011;8688;54.444;18.444;2022-11-14T05:49:30;16.90;;;9.63;;
17145;SDS011;8688;54.444;18.444;2022-11-14T05:51:59;14.65;;;8.95;;
17145;SDS011;8688;54.444;18.444;2022-11-14T05:54:26;15.45;;;8.68;;
17145;SDS011;8688;54.444;18.444;2022-11-14T05:56:53;14.97;;;8.47;;
17145;SDS011;8688;54.444;18.444;2022-11-14T05:59:21;19.73;;;9.03;;
17145;SDS011;8688;54.444;18.444;2022-11-14T06:01:48;19.20;;;9.75;;
17145;SDS011;8688;54.444;18.444;2022-11-14T06:04:16;20.00;;;10.30;;
17145;SDS011;8688;54.444;18.444;2022-11-14T06:06:43;17.83;;;9.35;;
17145;SDS011;8688;54.444;18.444;2022-11-14T06:09:12;18.52;;;10.02;;
17145;SDS011;8688;54.444;18.444;2022-11-14T06:11:40;17.10;;;9.00;;
17145;SDS011;8688;54.444;18.444;2022-11-14T06:14:07;20.33;;;10.13;;
17145;SDS011;8688;54.444;18.444;2022-11-14T06:16:34;22.85;;;10.57;;
17145;SDS011;8688;54.444;18.444;2022-11-14T06:19:02;20.30;;;10.57;;
17145;SDS011;8688;54.444;18.444;2022-11-14T06:21:30;21.20;;;11.02;;
17145;SDS011;8688;54.444;18.444;2022-11-14T06:23:57;18.85;;;10.15;;
17145;SDS011;8688;54.444;18.444;2022-11-14T06:26:26;22.75;;;11.75;;
17145;SDS011;8688;54.444;18.444;2022-11-14T06:28:56;21.90;;;10.90;;
17145;SDS011;8688;54.444;18.444;2022-11-14T06:31:24;24.38;;;11.80;;
17145;SDS011;8688;54.444;18.444;2022-11-14T06:33:52;25.88;;;11.63;;
17145;SDS011;8688;54.444;18.444;2022-11-14T06:36:21;20.77;;;11.45;;
17145;SDS011;8688;54.444;18.444;2022-11-14T06:38:48;23.77;;;11.63;;
17145;SDS011;8688;54.444;18.444;2022-11-14T06:41:16;24.40;;;12.40;;
17145;SDS011;8688;54.444;18.444;2022-11-14T06:43:46;24.67;;;12.20;;
17145;SDS011;8688;54.444;18.444;2022-11-14T06:46:16;26.55;;;13.68;;
17145;SDS011;8688;54.444;18.444;2022-11-14T06:48:44;25.13;;;13.13;;
17145;SDS011;8688;54.444;18.444;2022-11-14T06:51:13;23.10;;;12.38;;
17145;SDS011;8688;54.444;18.444;2022-11-14T06:53:42;25.77;;;13.20;;
17145;SDS011;8688;54.444;18.444;2022-11-14T06:56:10;27.45;;;13.57;;
17145;SDS011;8688;54.444;18.444;2022-11-14T06:58:39;26.38;;;13.40;;
17145;SDS011;8688;54.444;18.444;2022-11-14T07:01:11;32.30;;;15.07;;
17145;SDS011;8688;54.444;18.444;2022-11-14T07:03:40;28.67;;;14.05;;
17145;SDS011;8688;54.444;18.444;2022-11-14T07:06:10;30.02;;;15.73;;
17145;SDS011;8688;54.444;18.444;2022-11-14T07:08:38;30.55;;;13.93;;
17145;SDS011;8688;54.444;18.444;2022-11-14T07:11:06;26.10;;;13.27;;
17145;SDS011;8688;54.444;18.444;2022-11-14T07:13:35;29.98;;;14.20;;
17145;SDS011;8688;54.444;18.444;2022-11-14T07:16:03;26.83;;;13.88;;
17145;SDS011;8688;54.444;18.444;2022-11-14T07:18:33;27.03;;;13.73;;
17145;SDS011;8688;54.444;18.444;2022-11-14T07:21:01;25.38;;;13.25;;
17145;SDS011;8688;54.444;18.444;2022-11-14T07:23:30;25.13;;;13.00;;
17145;SDS011;8688;54.444;18.444;2022-11-14T07:25:59;25.10;;;12.25;;
17145;SDS011;8688;54.444;18.444;2022-11-14T07:28:28;29.60;;;13.48;;
17145;SDS011;8688;54.444;18.444;2022-11-14T07:30:56;25.13;;;12.98;;
17145;SDS011;8688;54.444;18.444;2022-11-14T07:33:23;25.40;;;12.32;;
17145;SDS011;8688;54.444;18.444;2022-11-14T07:35:52;27.58;;;12.45;;
17145;SDS011;8688;54.444;18.444;2022-11-14T07:38:19;27.15;;;12.45;;
17145;SDS011;8688;54.444;18.444;2022-11-14T07:40:53;27.42;;;13.32;;
17145;SDS011;8688;54.444;18.444;2022-11-14T07:43:21;24.75;;;12.82;;
17145;SDS011;8688;54.444;18.444;2022-11-14T07:45:48;24.13;;;13.07;;
17145;SDS011;8688;54.444;18.444;2022-11-14T07:48:16;25.27;;;12.63;;
17145;SDS011;8688;54.444;18.444;2022-11-14T07:50:46;25.38;;;12.90;;
17145;SDS011;8688;54.444;18.444;2022-11-14T07:53:15;24.17;;;13.07;;
17145;SDS011;8688;54.444;18.444;2022-11-14T07:55:42;22.30;;;12.02;;
17145;SDS011;8688;54.444;18.444;2022-11-14T07:58:10;20.92;;;12.07;;
17145;SDS011;8688;54.444;18.444;2022-11-14T08:00:37;21.83;;;11.75;;
17145;SDS011;8688;54.444;18.444;2022-11-14T08:03:05;23.10;;;11.50;;
17145;SDS011;8688;54.444;18.444;2022-11-14T08:05:33;24.20;;;11.98;;
17145;SDS011;8688;54.444;18.444;2022-11-14T08:08:00;23.25;;;12.65;;
17145;SDS011;8688;54.444;18.444;2022-11-14T08:10:29;23.15;;;13.23;;
17145;SDS011;8688;54.444;18.444;2022-11-14T08:12:57;23.90;;;12.63;;
17145;SDS011;8688;54.444;18.444;2022-11-14T08:15:25;24.20;;;11.75;;
17145;SDS011;8688;54.444;18.444;2022-11-14T08:17:55;23.13;;;12.27;;
17145;SDS011;8688;54.444;18.444;2022-11-14T08:41:03;21.73;;;10.82;;
17145;SDS011;8688;54.444;18.444;2022-11-14T08:43:31;20.05;;;10.77;;
17145;SDS011;8688;54.444;18.444;2022-11-14T08:45:58;19.05;;;10.13;;
17145;SDS011;8688;54.444;18.444;2022-11-14T08:48:27;22.33;;;10.88;;
17145;SDS011;8688;54.444;18.444;2022-11-14T08:50:55;16.75;;;10.00;;
17145;SDS011;8688;54.444;18.444;2022-11-14T08:53:22;23.02;;;10.82;;
17145;SDS011;8688;54.444;18.444;2022-11-14T08:55:50;17.20;;;9.70;;
17145;SDS011;8688;54.444;18.444;2022-11-14T08:58:18;17.17;;;9.93;;
17145;SDS011;8688;54.444;18.444;2022-11-14T09:00:46;17.38;;;10.15;;
17145;SDS011;8688;54.444;18.444;2022-11-14T09:03:13;16.73;;;9.38;;
17145;SDS011;8688;54.444;18.444;2022-11-14T09:05:40;21.15;;;10.27;;
17145;SDS011;8688;54.444;18.444;2022-11-14T09:08:08;17.75;;;9.65;;
17145;SDS011;8688;54.444;18.444;2022-11-14T09:10:36;19.50;;;9.27;;
17145;SDS011;8688;54.444;18.444;2022-11-14T09:13:04;17.73;;;9.25;;
17145;SDS011;8688;54.444;18.444;2022-11-14T09:15:33;17.98;;;9.40;;
17145;SDS011;8688;54.444;18.444;2022-11-14T09:18:00;17.92;;;8.70;;
17145;SDS011;8688;54.444;18.444;2022-11-14T09:20:27;14.93;;;8.63;;
17145;SDS011;8688;54.444;18.444;2022-11-14T09:22:56;15.70;;;8.95;;
17145;SDS011;8688;54.444;18.444;2022-11-14T09:25:24;14.77;;;8.00;;
17145;SDS011;8688;54.444;18.444;2022-11-14T09:27:51;15.13;;;8.52;;
17145;SDS011;8688;54.444;18.444;2022-11-14T09:30:19;16.55;;;9.05;;
17145;SDS011;8688;54.444;18.444;2022-11-14T09:32:49;18.02;;;7.88;;
17145;SDS011;8688;54.444;18.444;2022-11-14T09:35:16;14.50;;;8.30;;
17145;SDS011;8688;54.444;18.444;2022-11-14T09:37:44;11.35;;;7.03;;
17145;SDS011;8688;54.444;18.444;2022-11-14T09:40:11;16.08;;;7.78;;
17145;SDS011;8688;54.444;18.444;2022-11-14T09:42:49;12.73;;;7.32;;
17145;SDS011;8688;54.444;18.444;2022-11-14T09:45:24;12.13;;;7.15;;
17145;SDS011;8688;54.444;18.444;2022-11-14T09:47:58;11.98;;;7.00;;
17145;SDS011;8688;54.444;18.444;2022-11-14T09:50:32;12.93;;;7.68;;
17145;SDS011;8688;54.444;18.444;2022-11-14T09:53:02;12.20;;;7.18;;
17145;SDS011;8688;54.444;18.444;2022-11-14T09:55:33;15.35;;;7.13;;
17145;SDS011;8688;54.444;18.444;2022-11-14T09:58:01;11.43;;;6.82;;
17145;SDS011;8688;54.444;18.444;2022-11-14T10:00:34;10.57;;;6.40;;
17145;SDS011;8688;54.444;18.444;2022-11-14T10:03:13;11.88;;;6.25;;
17145;SDS011;8688;54.444;18.444;2022-11-14T10:05:52;11.90;;;6.88;;
17145;SDS011;8688;54.444;18.444;2022-11-14T10:08:42;11.48;;;7.13;;
17145;SDS011;8688;54.444;18.444;2022-11-14T10:11:19;13.73;;;6.47;;
17145;SDS011;8688;54.444;18.444;2022-11-14T10:16:53;10.80;;;7.03;;
17145;SDS011;8688;54.444;18.444;2022-11-14T10:19:32;12.00;;;6.30;;
17145;SDS011;8688;54.444;18.444;2022-11-14T10:22:10;11.35;;;6.78;;
17145;SDS011;8688;54.444;18.444;2022-11-14T10:24:50;11.35;;;7.40;;
17145;SDS011;8688;54.444;18.444;2022-11-14T10:27:29;10.90;;;6.63;;
17145;SDS011;8688;54.444;18.444;2022-11-14T10:30:06;10.80;;;7.13;;
17145;SDS011;8688;54.444;18.444;2022-11-14T10:32:46;13.48;;;7.70;;
17145;SDS011;8688;54.444;18.444;2022-11-14T10:35:36;11.38;;;7.40;;
17145;SDS011;8688;54.444;18.444;2022-11-14T10:38:08;14.45;;;6.97;;
17145;SDS011;8688;54.444;18.444;2022-11-14T10:40:40;13.27;;;7.40;;
17145;SDS011;8688;54.444;18.444;2022-11-14T10:43:13;12.02;;;7.00;;
17145;SDS011;8688;54.444;18.444;2022-11-14T10:45:46;11.27;;;7.82;;
17145;SDS011;8688;54.444;18.444;2022-11-14T10:48:18;13.77;;;7.95;;
17145;SDS011;8688;54.444;18.444;2022-11-14T10:50:57;12.55;;;8.07;;
17145;SDS011;8688;54.444;18.444;2022-11-14T10:53:28;13.23;;;8.35;;
17145;SDS011;8688;54.444;18.444;2022-11-14T10:56:03;13.38;;;8.15;;
17145;SDS011;8688;54.444;18.444;2022-11-14T10:58:31;13.13;;;7.95;;
17145;SDS011;8688;54.444;18.444;2022-11-14T11:03:57;13.35;;;7.65;;
17145;SDS011;8688;54.444;18.444;2022-11-14T11:06:39;12.40;;;8.07;;
17145;SDS011;8688;54.444;18.444;2022-11-14T11:09:07;16.27;;;8.65;;
17145;SDS011;8688;54.444;18.444;2022-11-14T11:11:56;15.00;;;9.13;;
17145;SDS011;8688;54.444;18.444;2022-11-14T11:14:25;15.07;;;8.32;;
17145;SDS011;8688;54.444;18.444;2022-11-14T11:17:07;15.57;;;9.57;;
17145;SDS011;8688;54.444;18.444;2022-11-14T11:19:45;15.25;;;8.85;;
17145;SDS011;8688;54.444;18.444;2022-11-14T11:22:28;19.60;;;9.55;;
17145;SDS011;8688;54.444;18.444;2022-11-14T11:25:01;14.98;;;9.25;;
17145;SDS011;8688;54.444;18.444;2022-11-14T11:27:30;13.93;;;9.30;;
17145;SDS011;8688;54.444;18.444;2022-11-14T11:30:02;14.77;;;9.48;;
17145;SDS011;8688;54.444;18.444;2022-11-14T11:32:33;13.18;;;9.02;;
17145;SDS011;8688;54.444;18.444;2022-11-14T11:35:02;16.20;;;10.23;;
17145;SDS011;8688;54.444;18.444;2022-11-14T11:37:40;13.82;;;9.52;;
17145;SDS011;8688;54.444;18.444;2022-11-14T11:40:15;15.38;;;9.60;;
17145;SDS011;8688;54.444;18.444;2022-11-14T11:42:46;17.92;;;10.15;;
17145;SDS011;8688;54.444;18.444;2022-11-14T11:45:19;15.40;;;9.73;;
17145;SDS011;8688;54.444;18.444;2022-11-14T11:47:49;16.77;;;9.88;;
17145;SDS011;8688;54.444;18.444;2022-11-14T11:50:23;16.00;;;9.73;;
17145;SDS011;8688;54.444;18.444;2022-11-14T11:52:54;15.00;;;9.18;;
17145;SDS011;8688;54.444;18.444;2022-11-14T11:55:28;14.40;;;9.17;;
17145;SDS011;8688;54.444;18.444;2022-11-14T11:58:00;15.18;;;9.13;;
17145;SDS011;8688;54.444;18.444;2022-11-14T12:00:32;14.73;;;9.25;;
17145;SDS011;8688;54.444;18.444;2022-11-14T12:03:00;15.07;;;9.32;;
17145;SDS011;8688;54.444;18.444;2022-11-14T12:05:30;16.30;;;10.20;;
17145;SDS011;8688;54.444;18.444;2022-11-14T12:08:10;16.20;;;10.05;;
17145;SDS011;8688;54.444;18.444;2022-11-14T12:10:45;18.30;;;10.15;;
17145;SDS011;8688;54.444;18.444;2022-11-14T12:16:26;19.38;;;10.65;;
17145;SDS011;8688;54.444;18.444;2022-11-14T12:25:35;18.52;;;11.38;;
17145;SDS011;8688;54.444;18.444;2022-11-14T12:28:16;17.35;;;11.95;;
17145;SDS011;8688;54.444;18.444;2022-11-14T12:30:55;17.13;;;11.15;;
17145;SDS011;8688;54.444;18.444;2022-11-14T12:33:26;20.10;;;11.85;;
17145;SDS011;8688;54.444;18.444;2022-11-14T12:35:58;20.42;;;12.13;;
17145;SDS011;8688;54.444;18.444;2022-11-14T12:38:29;19.55;;;11.65;;
17145;SDS011;8688;54.444;18.444;2022-11-14T12:41:01;18.03;;;11.17;;
17145;SDS011;8688;54.444;18.444;2022-11-14T12:43:33;17.55;;;10.45;;
17145;SDS011;8688;54.444;18.444;2022-11-14T12:46:02;18.67;;;10.95;;
17145;SDS011;8688;54.444;18.444;2022-11-14T12:48:36;16.70;;;10.57;;
17145;SDS011;8688;54.444;18.444;2022-11-14T12:51:04;17.27;;;11.00;;
17145;SDS011;8688;54.444;18.444;2022-11-14T12:53:47;17.83;;;11.37;;
17145;SDS011;8688;54.444;18.444;2022-11-14T12:59:21;17.65;;;11.02;;
17145;SDS011;8688;54.444;18.444;2022-11-14T13:04:58;18.87;;;11.13;;
17145;SDS011;8688;54.444;18.444;2022-11-14T13:07:47;18.10;;;11.70;;
17145;SDS011;8688;54.444;18.444;2022-11-14T13:10:27;114.43;;;53.80;;
17145;SDS011;8688;54.444;18.444;2022-11-14T13:13:01;27.27;;;17.50;;
17145;SDS011;8688;54.444;18.444;2022-11-14T13:15:49;19.90;;;12.80;;
17145;SDS011;8688;54.444;18.444;2022-11-14T13:18:36;25.63;;;16.87;;
17145;SDS011;8688;54.444;18.444;2022-11-14T13:21:37;25.63;;;16.07;;
17145;SDS011;8688;54.444;18.444;2022-11-14T13:24:24;25.93;;;16.13;;
17145;SDS011;8688;54.444;18.444;2022-11-14T13:26:52;30.97;;;19.07;;
17145;SDS011;8688;54.444;18.444;2022-11-14T13:38:43;36.07;;;21.27;;
17145;SDS011;8688;54.444;18.444;2022-11-14T13:41:36;31.73;;;18.57;;
17145;SDS011;8688;54.444;18.444;2022-11-14T13:47:26;28.67;;;18.00;;
17145;SDS011;8688;54.444;18.444;2022-11-14T13:50:05;28.20;;;17.33;;
17145;SDS011;8688;54.444;18.444;2022-11-14T13:52:38;31.77;;;19.40;;
17145;SDS011;8688;54.444;18.444;2022-11-14T13:55:16;26.67;;;16.17;;
17145;SDS011;8688;54.444;18.444;2022-11-14T13:57:48;23.23;;;15.97;;
17145;SDS011;8688;54.444;18.444;2022-11-14T14:00:25;22.87;;;14.53;;
17145;SDS011;8688;54.444;18.444;2022-11-14T14:03:09;23.40;;;15.63;;
17145;SDS011;8688;54.444;18.444;2022-11-14T14:05:54;23.10;;;16.80;;
17145;SDS011;8688;54.444;18.444;2022-11-14T14:08:38;21.83;;;13.93;;
17145;SDS011;8688;54.444;18.444;2022-11-14T14:11:22;23.57;;;15.90;;
17145;SDS011;8688;54.444;18.444;2022-11-14T14:14:02;22.33;;;14.10;;
17145;SDS011;8688;54.444;18.444;2022-11-14T14:16:40;26.67;;;16.67;;
17145;SDS011;8688;54.444;18.444;2022-11-14T14:19:17;22.92;;;15.48;;
17145;SDS011;8688;54.444;18.444;2022-11-14T14:21:58;19.83;;;14.10;;
17145;SDS011;8688;54.444;18.444;2022-11-14T14:24:34;22.47;;;15.83;;
17145;SDS011;8688;54.444;18.444;2022-11-14T14:27:13;22.20;;;14.60;;
17145;SDS011;8688;54.444;18.444;2022-11-14T14:29:50;22.33;;;14.13;;
17145;SDS011;8688;54.444;18.444;2022-11-14T14:32:27;21.00;;;14.20;;
17145;SDS011;8688;54.444;18.444;2022-11-14T14:34:56;21.70;;;14.63;;
17145;SDS011;8688;54.444;18.444;2022-11-14T14:37:25;21.30;;;14.57;;
17145;SDS011;8688;54.444;18.444;2022-11-14T14:39:56;23.58;;;14.32;;
17145;SDS011;8688;54.444;18.444;2022-11-14T14:42:25;19.97;;;14.13;;
17145;SDS011;8688;54.444;18.444;2022-11-14T14:44:56;21.93;;;14.70;;
17145;SDS011;8688;54.444;18.444;2022-11-14T14:50:14;21.93;;;14.67;;
17145;SDS011;8688;54.444;18.444;2022-11-14T14:52:44;20.60;;;14.80;;
17145;SDS011;8688;54.444;18.444;2022-11-14T14:55:17;22.60;;;15.07;;
17145;SDS011;8688;54.444;18.444;2022-11-14T14:57:46;24.30;;;15.57;;
17145;SDS011;8688;54.444;18.444;2022-11-14T15:00:18;23.10;;;16.47;;
17145;SDS011;8688;54.444;18.444;2022-11-14T15:02:50;26.30;;;17.23;;
17145;SDS011;8688;54.444;18.444;2022-11-14T15:05:24;27.50;;;17.77;;
17145;SDS011;8688;54.444;18.444;2022-11-14T15:07:54;28.07;;;19.47;;
17145;SDS011;8688;54.444;18.444;2022-11-14T15:10:24;36.27;;;22.10;;
17145;SDS011;8688;54.444;18.444;2022-11-14T15:12:55;30.67;;;19.07;;
17145;SDS011;8688;54.444;18.444;2022-11-14T15:15:23;31.83;;;19.80;;
17145;SDS011;8688;54.444;18.444;2022-11-14T15:17:52;30.97;;;20.57;;
17145;SDS011;8688;54.444;18.444;2022-11-14T15:20:25;33.57;;;21.87;;
17145;SDS011;8688;54.444;18.444;2022-11-14T15:23:03;35.03;;;22.03;;
17145;SDS011;8688;54.444;18.444;2022-11-14T15:25:43;35.13;;;22.97;;
17145;SDS011;8688;54.444;18.444;2022-11-14T15:28:18;34.57;;;21.83;;
17145;SDS011;8688;54.444;18.444;2022-11-14T15:30:55;34.77;;;20.97;;
17145;SDS011;8688;54.444;18.444;2022-11-14T15:33:25;34.50;;;21.47;;
17145;SDS011;8688;54.444;18.444;2022-11-14T15:36:09;36.97;;;21.97;;
17145;SDS011;8688;54.444;18.444;2022-11-14T15:38:37;38.43;;;21.47;;
17145;SDS011;8688;54.444;18.444;2022-11-14T15:41:09;33.87;;;20.93;;
17145;SDS011;8688;54.444;18.444;2022-11-14T15:43:46;37.27;;;22.23;;
17145;SDS011;8688;54.444;18.444;2022-11-14T15:46:28;38.47;;;23.50;;
17145;SDS011;8688;54.444;18.444;2022-11-14T15:49:09;38.63;;;22.07;;
17145;SDS011;8688;54.444;18.444;2022-11-14T15:51:46;38.43;;;23.27;;
17145;SDS011;8688;54.444;18.444;2022-11-14T15:54:23;36.33;;;22.27;;
17145;SDS011;8688;54.444;18.444;2022-11-14T15:56:55;37.87;;;22.10;;
17145;SDS011;8688;54.444;18.444;2022-11-14T15:59:23;36.03;;;21.47;;
17145;SDS011;8688;54.444;18.444;2022-11-14T16:01:53;34.80;;;20.70;;
17145;SDS011;8688;54.444;18.444;2022-11-14T16:04:27;39.23;;;22.67;;
17145;SDS011;8688;54.444;18.444;2022-11-14T16:06:58;39.07;;;22.27;;
17145;SDS011;8688;54.444;18.444;2022-11-14T16:09:25;39.10;;;23.97;;